Niznij Novgorod, Russia
Current Conditions -  °F | °C
As of 11:00 AM on Monday 20 Oct 2014 (Local Time) from UWGG Reporting Station
Light Snow Light Snow  
Wind Chill: 20°   Ceiling: 1200
Heat Index: 28°   Visibility: 3mi
Dew Point: 27°   Wind: 9mph
Humidity: 93%   Direction: 130°SE
Pressure: 29.62"   Gusts: NA
Location:  56.3°N, 43.93°E
Report Text: UWGG 200800Z 13004MPS 5000 -SN OVC012 M02/M03 Q1003 TEMPO11007G15MPS 1000 SN BLSN OVC005 18490240 RMK QFE745
Loading
Personal Weather Stations






























Interactive Weather Map
Tropical Storm Tracking
New forecast layout! Learn more

10-Day Weather Forecast

Advertisements
Track Severe Weather on mobile